Terminal Aerodrome Forecast
Issued by NWS

Home | Current Version | Previous Version | Text Only | Print | Product List | Glossary Off
Versions: 1 2 3 4 5 6 7 8 9 10 11 12 13 14 15 16 17 18 19 20

000
FTUS43 KGRB 182323
TAFMTW
TAF
KMTW 182323Z 1900/1924 34015G23KT P6SM OVC025
     FM190400 31014G21KT P6SM BKN035
     FM191300 29012G18KT P6SM SCT040
     FM192200 26009KT P6SM SCT050 BKN090=

USA.gov is the U.S. government's official web portal to all federal, state and local government web resources and services.